Time;durP1;ratioP1;P1;durP2;ratioP2;P2;SDS_P1;SDS_P2;PMS_P1;PMS_P2;Temp;Humidity;BMP_temperature;BMP_pressure;BME280_temperature;BME280_humidity;BME280_pressure;Samples;Min_cycle;Max_cycle;Signal;HPM_P1;HPM_P2
2021/09/25 00:00:30;;;;;;;8.03;5.60;;;10.10;99.90;;;;;;5064483;28;20418;-77
2021/09/25 00:02:58;;;;;;;9.17;5.30;;;10.10;99.90;;;;;;5066421;28;20032;-77
2021/09/25 00:05:32;;;;;;;8.18;5.55;;;10.10;99.90;;;;;;5065672;28;20028;-77
2021/09/25 00:07:58;;;;;;;7.67;5.67;;;10.10;99.90;;;;;;5065751;28;20435;-76
2021/09/25 00:10:24;;;;;;;7.50;5.75;;;10.00;99.90;;;;;;5065553;28;20059;-77
2021/09/25 00:12:50;;;;;;;7.00;5.40;;;10.00;99.90;;;;;;5065688;28;20107;-77
2021/09/25 00:15:17;;;;;;;8.33;6.10;;;10.00;99.90;;;;;;5065551;28;20416;-77
2021/09/25 00:17:45;;;;;;;9.35;5.68;;;10.00;99.90;;;;;;5065066;28;20055;-77
2021/09/25 00:20:11;;;;;;;6.93;5.63;;;9.90;99.90;;;;;;5065393;28;20473;-77
2021/09/25 00:22:37;;;;;;;9.13;5.88;;;9.90;99.90;;;;;;5065105;28;20519;-77
2021/09/25 00:25:04;;;;;;;8.30;5.88;;;9.90;99.90;;;;;;5065115;28;20036;-77
2021/09/25 00:27:29;;;;;;;7.53;5.30;;;9.90;99.90;;;;;;5065266;28;20500;-77
2021/09/25 00:29:55;;;;;;;6.63;5.65;;;9.90;99.90;;;;;;5064076;28;20033;-77
2021/09/25 00:32:21;;;;;;;7.00;5.28;;;9.90;99.90;;;;;;5065201;28;20114;-77
2021/09/25 00:34:46;;;;;;;7.15;5.35;;;9.90;99.90;;;;;;5065459;28;20094;-77
2021/09/25 00:37:12;;;;;;;7.93;5.25;;;9.90;99.90;;;;;;5065556;28;20389;-77
2021/09/25 00:39:37;;;;;;;6.47;5.10;;;9.90;99.90;;;;;;5065328;28;20032;-77
2021/09/25 00:42:03;;;;;;;8.55;5.50;;;9.80;99.90;;;;;;5065406;28;20028;-77
2021/09/25 00:44:29;;;;;;;6.85;5.60;;;9.90;99.90;;;;;;5064992;28;20446;-77
2021/09/25 00:46:56;;;;;;;9.33;5.57;;;9.90;99.90;;;;;;5063913;28;20041;-77
2021/09/25 00:49:23;;;;;;;7.70;5.63;;;9.90;99.90;;;;;;5065431;28;20021;-77
2021/09/25 00:51:49;;;;;;;7.10;5.47;;;9.90;99.90;;;;;;5064499;28;20031;-77
2021/09/25 00:54:15;;;;;;;9.57;6.03;;;9.90;99.90;;;;;;5064721;28;20025;-77
2021/09/25 00:56:43;;;;;;;8.23;5.80;;;9.90;99.90;;;;;;5065390;28;20139;-77
2021/09/25 00:59:10;;;;;;;8.93;5.93;;;9.90;99.90;;;;;;5028283;28;1050759;-76
2021/09/25 01:01:35;;;;;;;9.13;6.05;;;9.90;99.90;;;;;;5064894;28;20495;-77
2021/09/25 01:04:01;;;;;;;7.05;5.75;;;9.90;99.90;;;;;;5066035;28;20035;-77
2021/09/25 01:06:27;;;;;;;8.40;5.70;;;9.90;99.90;;;;;;5065840;28;20029;-76
2021/09/25 01:08:52;;;;;;;7.85;5.82;;;9.80;99.90;;;;;;5066046;28;20036;-77
2021/09/25 01:11:18;;;;;;;9.13;5.77;;;9.90;99.90;;;;;;5065853;28;20060;-77
2021/09/25 01:13:43;;;;;;;13.35;6.03;;;9.80;99.90;;;;;;5065397;28;20036;-76
2021/09/25 01:16:09;;;;;;;13.23;6.57;;;9.80;99.90;;;;;;5065334;28;20063;-77
2021/09/25 01:18:35;;;;;;;7.30;5.78;;;9.80;99.90;;;;;;5066205;28;20032;-76
2021/09/25 01:21:04;;;;;;;6.47;5.47;;;9.80;99.90;;;;;;5066159;28;20028;-76
2021/09/25 01:23:30;;;;;;;7.32;6.00;;;9.80;99.90;;;;;;5065920;28;20035;-75
2021/09/25 01:25:55;;;;;;;8.60;5.75;;;9.70;99.90;;;;;;5064439;28;20032;-75
2021/09/25 01:28:21;;;;;;;7.40;5.40;;;9.70;99.90;;;;;;5065841;28;20034;-76
2021/09/25 01:30:46;;;;;;;9.73;6.13;;;9.70;99.90;;;;;;5064466;28;20131;-76
2021/09/25 01:33:12;;;;;;;7.32;5.35;;;9.70;99.90;;;;;;5066172;28;20032;-76
2021/09/25 01:35:38;;;;;;;7.93;6.27;;;9.70;99.90;;;;;;5066172;28;20437;-76
2021/09/25 01:38:03;;;;;;;8.30;5.90;;;9.70;99.90;;;;;;5065935;28;20498;-76
2021/09/25 01:40:29;;;;;;;8.50;5.53;;;9.70;99.90;;;;;;5063778;28;20025;-76
2021/09/25 01:42:55;;;;;;;8.67;6.20;;;9.60;99.90;;;;;;5065804;28;20025;-75
2021/09/25 01:45:20;;;;;;;8.27;5.70;;;9.60;99.90;;;;;;5065584;28;20028;-75
2021/09/25 01:47:46;;;;;;;9.33;5.93;;;9.60;99.90;;;;;;5065560;28;20500;-76
2021/09/25 01:50:13;;;;;;;7.25;5.82;;;9.60;99.90;;;;;;5065466;28;20595;-76
2021/09/25 01:52:38;;;;;;;9.45;6.25;;;9.60;99.90;;;;;;5065690;28;20035;-75
2021/09/25 01:55:05;;;;;;;9.20;6.17;;;9.60;99.90;;;;;;5065270;28;20099;-76
2021/09/25 01:57:31;;;;;;;10.05;6.15;;;9.60;99.90;;;;;;5065940;28;20032;-76
2021/09/25 01:59:56;;;;;;;10.73;6.20;;;9.60;99.90;;;;;;5068670;28;20409;-76
2021/09/25 02:02:22;;;;;;;8.93;5.87;;;9.60;99.90;;;;;;5069175;28;20031;-76
2021/09/25 02:04:48;;;;;;;7.47;5.90;;;9.70;99.90;;;;;;5068790;28;20097;-76
2021/09/25 02:07:18;;;;;;;10.23;6.57;;;9.70;99.90;;;;;;5069008;28;20056;-76
2021/09/25 02:09:45;;;;;;;8.73;6.57;;;9.70;99.90;;;;;;5068640;28;20028;-76
2021/09/25 02:12:11;;;;;;;10.13;6.53;;;9.70;99.90;;;;;;5068777;28;20079;-76
2021/09/25 02:14:37;;;;;;;8.23;6.40;;;9.70;99.90;;;;;;5069399;28;20032;-76
2021/09/25 02:17:03;;;;;;;8.30;6.33;;;9.70;99.90;;;;;;5068722;28;20032;-76
2021/09/25 02:19:29;;;;;;;8.27;6.10;;;9.70;99.90;;;;;;5068474;28;20385;-75
2021/09/25 02:21:55;;;;;;;7.63;6.33;;;9.70;99.90;;;;;;5067806;28;20024;-76
2021/09/25 02:24:20;;;;;;;8.40;6.40;;;9.70;99.90;;;;;;5068398;28;20450;-76
2021/09/25 02:26:46;;;;;;;7.30;6.37;;;9.70;99.90;;;;;;5068559;28;20025;-75
2021/09/25 02:29:11;;;;;;;8.70;6.53;;;9.70;99.90;;;;;;5068386;28;20024;-76
2021/09/25 02:31:37;;;;;;;10.02;6.38;;;9.70;99.90;;;;;;5068786;28;20028;-76
2021/09/25 02:34:03;;;;;;;9.77;6.47;;;9.70;99.90;;;;;;5068668;28;20036;-76
2021/09/25 02:36:29;;;;;;;8.70;6.97;;;9.70;99.90;;;;;;5068665;28;20029;-75
2021/09/25 02:38:55;;;;;;;9.13;6.53;;;9.70;99.90;;;;;;5068290;28;20032;-76
2021/09/25 02:41:20;;;;;;;8.90;6.63;;;9.70;99.90;;;;;;5068455;28;20036;-75
2021/09/25 02:43:46;;;;;;;9.20;6.67;;;9.70;99.90;;;;;;5067885;28;20120;-75
2021/09/25 02:46:12;;;;;;;10.77;6.70;;;9.70;99.90;;;;;;5068079;28;20020;-75
2021/09/25 02:48:38;;;;;;;8.40;6.50;;;9.60;99.90;;;;;;5068025;28;20024;-76
2021/09/25 02:51:03;;;;;;;9.27;5.72;;;9.60;99.90;;;;;;5068613;28;20029;-76
2021/09/25 02:53:29;;;;;;;10.40;6.47;;;9.60;99.90;;;;;;5068654;28;20485;-76
2021/09/25 02:55:55;;;;;;;8.70;5.43;;;9.60;99.90;;;;;;5068030;28;20036;-76
2021/09/25 02:58:20;;;;;;;7.53;6.23;;;9.50;99.90;;;;;;5067667;28;20056;-76
2021/09/25 03:00:46;;;;;;;10.70;7.03;;;9.50;99.90;;;;;;5067860;28;20020;-76
2021/09/25 03:03:11;;;;;;;7.85;5.78;;;9.50;99.90;;;;;;5068091;28;20028;-75
2021/09/25 03:05:37;;;;;;;7.60;6.37;;;9.50;99.90;;;;;;5066535;28;20029;-76
2021/09/25 03:08:03;;;;;;;8.10;6.87;;;9.50;99.90;;;;;;5066240;28;20096;-76
2021/09/25 03:10:28;;;;;;;10.73;7.07;;;9.50;99.90;;;;;;5067733;28;20036;-76
2021/09/25 03:12:54;;;;;;;7.03;6.10;;;9.50;99.90;;;;;;5068781;28;20349;-76
2021/09/25 03:15:20;;;;;;;7.20;5.65;;;9.60;99.90;;;;;;5067454;28;20028;-75
2021/09/25 03:17:46;;;;;;;7.77;6.20;;;9.60;99.90;;;;;;5067934;28;20123;-75
2021/09/25 03:20:12;;;;;;;10.27;5.90;;;9.60;99.90;;;;;;5068265;28;20028;-76
2021/09/25 03:22:38;;;;;;;8.63;6.13;;;9.60;99.90;;;;;;5065993;28;20367;-76
2021/09/25 03:25:08;;;;;;;8.30;6.10;;;9.60;99.90;;;;;;5067741;28;20055;-76
2021/09/25 03:27:38;;;;;;;7.80;6.20;;;9.60;99.90;;;;;;5066256;28;20032;-76
2021/09/25 03:30:05;;;;;;;8.80;5.77;;;9.60;99.90;;;;;;5068110;28;20398;-76
2021/09/25 03:32:31;;;;;;;8.50;6.00;;;9.50;99.90;;;;;;5067103;28;20598;-76
2021/09/25 03:34:56;;;;;;;8.70;6.30;;;9.50;99.90;;;;;;5067900;28;20107;-76
2021/09/25 03:37:22;;;;;;;9.23;6.20;;;9.50;99.90;;;;;;5067171;28;20034;-76
2021/09/25 03:39:48;;;;;;;8.57;5.67;;;9.50;99.90;;;;;;5067195;28;20028;-76
2021/09/25 03:42:13;;;;;;;10.50;6.20;;;9.50;99.90;;;;;;5067354;28;20020;-76
2021/09/25 03:44:39;;;;;;;7.65;5.93;;;9.50;99.90;;;;;;5067664;28;20478;-76
2021/09/25 03:47:04;;;;;;;8.77;6.30;;;9.50;99.90;;;;;;5066910;28;20450;-75
2021/09/25 03:49:30;;;;;;;11.03;6.47;;;9.50;99.90;;;;;;5067453;28;20029;-76
2021/09/25 03:51:55;;;;;;;9.50;6.57;;;9.50;99.90;;;;;;5067006;28;20528;-76
2021/09/25 03:54:21;;;;;;;8.57;5.70;;;9.50;99.90;;;;;;5066691;28;20025;-76
2021/09/25 03:56:47;;;;;;;8.27;6.27;;;9.50;99.90;;;;;;5067105;28;20033;-76
2021/09/25 03:59:12;;;;;;;10.47;6.67;;;9.40;99.90;;;;;;5066516;28;20490;-76
2021/09/25 04:01:38;;;;;;;9.40;6.00;;;9.40;99.90;;;;;;5067096;28;20032;-76
2021/09/25 04:04:04;;;;;;;6.77;5.30;;;9.40;99.90;;;;;;5066468;28;20047;-76
2021/09/25 04:06:29;;;;;;;7.73;6.23;;;9.40;99.90;;;;;;5067100;28;20103;-76
2021/09/25 04:08:55;;;;;;;9.40;6.53;;;9.30;99.90;;;;;;5067274;28;20020;-76
2021/09/25 04:11:21;;;;;;;10.20;5.83;;;9.30;99.90;;;;;;5066696;28;20021;-76
2021/09/25 04:13:46;;;;;;;8.10;5.83;;;9.30;99.90;;;;;;5065256;28;20090;-76
2021/09/25 04:16:12;;;;;;;7.00;5.70;;;9.20;99.90;;;;;;5066549;28;20032;-76
2021/09/25 04:18:37;;;;;;;8.57;5.50;;;9.20;99.90;;;;;;5066789;28;20031;-76
2021/09/25 04:21:03;;;;;;;7.63;6.00;;;9.20;99.90;;;;;;5064538;28;20443;-76
2021/09/25 04:23:28;;;;;;;7.23;5.57;;;9.20;99.90;;;;;;5066269;28;20036;-76
2021/09/25 04:25:54;;;;;;;7.37;6.13;;;9.20;99.90;;;;;;5066975;28;20025;-76
2021/09/25 04:28:19;;;;;;;9.53;6.17;;;9.10;99.90;;;;;;5066463;28;20272;-76
2021/09/25 04:30:45;;;;;;;7.70;6.67;;;9.10;99.90;;;;;;5066410;28;20099;-76
2021/09/25 04:33:11;;;;;;;9.57;6.13;;;9.10;99.90;;;;;;5066851;28;20048;-76
2021/09/25 04:35:38;;;;;;;10.40;6.80;;;9.10;99.90;;;;;;5066611;28;20036;-77
2021/09/25 04:38:04;;;;;;;9.00;6.77;;;9.20;99.90;;;;;;5065946;28;20059;-76
2021/09/25 04:40:31;;;;;;;10.67;7.10;;;9.20;99.90;;;;;;5066618;28;20029;-76
2021/09/25 04:42:58;;;;;;;10.53;6.13;;;9.30;99.90;;;;;;5066426;28;20038;-76
2021/09/25 04:45:23;;;;;;;16.27;12.83;;;9.30;99.90;;;;;;5066254;28;20146;-76
2021/09/25 04:47:50;;;;;;;15.77;11.73;;;9.40;99.90;;;;;;5066216;28;20025;-76
2021/09/25 04:50:17;;;;;;;14.77;11.13;;;9.40;99.90;;;;;;5066043;28;20039;-75
2021/09/25 04:52:43;;;;;;;13.67;9.93;;;9.40;99.90;;;;;;5066184;28;20086;-75
2021/09/25 04:55:09;;;;;;;10.20;7.13;;;9.40;99.90;;;;;;5066364;28;20025;-75
2021/09/25 04:57:35;;;;;;;8.17;6.23;;;9.40;99.90;;;;;;5065881;28;20120;-76
2021/09/25 05:00:00;;;;;;;10.57;5.90;;;9.30;99.90;;;;;;5066559;28;20536;-76
2021/09/25 05:02:26;;;;;;;9.17;5.63;;;9.30;99.90;;;;;;5066905;28;20071;-76
2021/09/25 05:04:51;;;;;;;10.07;6.27;;;9.30;99.90;;;;;;5065770;28;20028;-76
2021/09/25 05:07:17;;;;;;;10.47;5.67;;;9.20;99.90;;;;;;5064627;28;20036;-76
2021/09/25 05:09:43;;;;;;;8.47;6.23;;;9.20;99.90;;;;;;5066330;28;20033;-75
2021/09/25 05:12:09;;;;;;;8.90;5.87;;;9.20;99.90;;;;;;5065848;28;20028;-75
2021/09/25 05:14:34;;;;;;;9.83;5.30;;;9.20;99.90;;;;;;5064258;28;20112;-75
2021/09/25 05:17:01;;;;;;;7.17;5.37;;;9.20;99.90;;;;;;5065963;28;20035;-76
2021/09/25 05:19:26;;;;;;;7.27;5.30;;;9.20;99.90;;;;;;5066191;28;20092;-75
2021/09/25 05:21:52;;;;;;;9.07;5.70;;;9.20;99.90;;;;;;5065909;28;20133;-76
2021/09/25 05:24:19;;;;;;;6.93;5.53;;;9.20;99.90;;;;;;5065732;28;20028;-76
2021/09/25 05:26:46;;;;;;;8.13;6.00;;;9.20;99.90;;;;;;5065652;28;20031;-76
2021/09/25 05:29:11;;;;;;;5.63;4.70;;;9.20;99.90;;;;;;5065757;28;20027;-76
2021/09/25 05:31:37;;;;;;;6.77;5.37;;;9.20;99.90;;;;;;5064135;28;20416;-76
2021/09/25 05:34:03;;;;;;;7.20;5.87;;;9.20;99.90;;;;;;5068898;28;20132;-76
2021/09/25 05:36:29;;;;;;;6.93;5.43;;;9.30;99.90;;;;;;5069306;28;20492;-76
2021/09/25 05:38:54;;;;;;;7.40;5.47;;;9.30;99.90;;;;;;5067958;28;20036;-76
2021/09/25 05:41:20;;;;;;;7.20;5.90;;;9.30;99.90;;;;;;5069757;28;20441;-76
2021/09/25 05:43:45;;;;;;;8.60;6.00;;;9.40;99.90;;;;;;5069597;28;20118;-75
2021/09/25 05:46:11;;;;;;;10.63;6.10;;;9.50;99.90;;;;;;5069202;28;20038;-76
2021/09/25 05:48:37;;;;;;;8.20;5.93;;;9.60;99.90;;;;;;5069068;28;20454;-76
2021/09/25 05:51:03;;;;;;;6.63;5.60;;;9.60;99.90;;;;;;5069561;28;20032;-76
2021/09/25 05:53:29;;;;;;;13.00;5.43;;;9.60;99.90;;;;;;5069577;28;20177;-76
2021/09/25 05:55:55;;;;;;;8.30;5.22;;;9.70;99.90;;;;;;5069721;28;20465;-75
2021/09/25 05:58:20;;;;;;;6.77;5.50;;;9.70;99.90;;;;;;5068800;28;20482;-76
2021/09/25 06:00:46;;;;;;;6.05;4.95;;;9.70;99.90;;;;;;5069292;28;20192;-76
2021/09/25 06:03:11;;;;;;;6.85;5.55;;;9.80;99.90;;;;;;5069160;28;20032;-76
2021/09/25 06:05:37;;;;;;;7.75;5.80;;;9.90;99.90;;;;;;5068822;28;20028;-76
2021/09/25 06:08:03;;;;;;;6.10;5.32;;;10.00;99.90;;;;;;5068841;28;20520;-76
2021/09/25 06:10:30;;;;;;;7.63;5.30;;;10.10;99.90;;;;;;5068509;28;20262;-76
2021/09/25 06:12:56;;;;;;;6.32;5.43;;;10.20;99.90;;;;;;5068666;28;20058;-76
2021/09/25 06:15:22;;;;;;;6.40;5.65;;;10.30;99.90;;;;;;5068947;28;20481;-76
2021/09/25 06:17:47;;;;;;;8.53;5.07;;;10.30;99.90;;;;;;5068594;28;20138;-76
2021/09/25 06:20:13;;;;;;;8.32;5.13;;;10.40;99.90;;;;;;5068284;28;20063;-75
2021/09/25 06:22:39;;;;;;;8.40;5.57;;;10.50;99.90;;;;;;5068848;28;20214;-76
2021/09/25 06:25:06;;;;;;;6.57;5.55;;;10.60;99.90;;;;;;5068971;28;20060;-76
2021/09/25 06:27:32;;;;;;;7.57;5.53;;;10.60;99.90;;;;;;5068082;28;20173;-76
2021/09/25 06:29:58;;;;;;;7.28;5.70;;;10.70;99.90;;;;;;5068640;28;20082;-76
2021/09/25 06:32:23;;;;;;;7.47;5.90;;;10.80;99.90;;;;;;5068275;28;20039;-76
2021/09/25 06:34:49;;;;;;;6.95;4.85;;;10.90;99.90;;;;;;5068378;28;20511;-76
2021/09/25 06:37:14;;;;;;;6.20;4.95;;;11.00;99.90;;;;;;5066232;28;20639;-76
2021/09/25 06:39:40;;;;;;;7.43;5.30;;;11.10;99.90;;;;;;5068087;28;20043;-76
2021/09/25 06:42:05;;;;;;;7.18;4.45;;;11.20;99.90;;;;;;5067892;28;20025;-76
2021/09/25 06:44:31;;;;;;;5.35;4.85;;;11.30;99.90;;;;;;5067825;28;20032;-76
2021/09/25 06:46:57;;;;;;;7.38;4.85;;;11.40;99.90;;;;;;5066287;28;20032;-76
2021/09/25 06:49:24;;;;;;;11.93;5.97;;;11.50;99.90;;;;;;5067734;28;20024;-76
2021/09/25 06:51:50;;;;;;;8.05;5.68;;;11.60;99.90;;;;;;5068284;28;20443;-76
2021/09/25 06:54:16;;;;;;;10.15;5.32;;;11.70;99.90;;;;;;5067608;28;20024;-76
2021/09/25 06:56:41;;;;;;;6.35;5.10;;;11.80;99.90;;;;;;5067688;28;20396;-76
2021/09/25 06:59:07;;;;;;;5.50;4.22;;;12.00;99.90;;;;;;5067455;28;20057;-76
2021/09/25 07:01:32;;;;;;;8.25;4.90;;;12.10;99.90;;;;;;5067368;28;20127;-76
2021/09/25 07:03:58;;;;;;;7.35;4.70;;;12.20;99.90;;;;;;5067525;28;20108;-76
2021/09/25 07:06:24;;;;;;;6.78;4.65;;;12.30;99.90;;;;;;5067259;28;20500;-76
2021/09/25 07:08:49;;;;;;;6.90;4.78;;;12.50;99.90;;;;;;5067540;28;20035;-76
2021/09/25 07:11:16;;;;;;;5.72;4.30;;;12.60;99.90;;;;;;5067859;28;20032;-76
2021/09/25 07:13:42;;;;;;;6.78;3.95;;;12.70;99.90;;;;;;5067597;28;20035;-75
2021/09/25 07:16:09;;;;;;;5.18;4.10;;;12.80;99.90;;;;;;5067091;28;20056;-76
2021/09/25 07:18:37;;;;;;;4.78;4.28;;;13.00;99.90;;;;;;5065818;28;20108;-76
2021/09/25 07:21:03;;;;;;;6.47;4.05;;;13.10;99.90;;;;;;5067696;28;20021;-76
2021/09/25 07:23:29;;;;;;;7.72;3.97;;;13.30;99.90;;;;;;5066975;28;20040;-77
2021/09/25 07:25:55;;;;;;;7.32;4.05;;;13.40;99.90;;;;;;5065790;28;20036;-76
2021/09/25 07:28:21;;;;;;;5.93;3.63;;;13.50;99.90;;;;;;5067388;28;20039;-77
2021/09/25 07:30:48;;;;;;;5.30;4.00;;;13.70;99.90;;;;;;5066926;28;20474;-77
2021/09/25 07:33:16;;;;;;;5.82;4.22;;;13.80;99.90;;;;;;5067021;28;20032;-77
2021/09/25 07:35:42;;;;;;;5.38;3.88;;;14.00;99.90;;;;;;5067269;28;20104;-77
2021/09/25 07:38:08;;;;;;;4.30;3.35;;;14.10;99.90;;;;;;5066608;28;20051;-77
2021/09/25 07:40:34;;;;;;;5.35;3.85;;;14.20;99.90;;;;;;5067099;28;20112;-77
2021/09/25 07:43:00;;;;;;;3.63;3.25;;;14.40;99.90;;;;;;5066958;28;20066;-77
2021/09/25 07:45:26;;;;;;;4.63;4.13;;;14.50;99.90;;;;;;5066866;28;20032;-77
2021/09/25 07:47:52;;;;;;;4.20;3.80;;;14.60;99.90;;;;;;5066904;28;20033;-77
2021/09/25 07:50:18;;;;;;;8.60;4.03;;;14.80;99.90;;;;;;5066770;28;20036;-77
2021/09/25 07:52:43;;;;;;;5.30;3.35;;;14.90;99.90;;;;;;5067092;28;20059;-77
2021/09/25 07:55:11;;;;;;;7.13;4.30;;;15.00;99.90;;;;;;5066208;28;20048;-77
2021/09/25 07:57:37;;;;;;;6.72;3.67;;;15.20;99.90;;;;;;5066223;28;20148;-77
2021/09/25 08:00:06;;;;;;;6.78;3.55;;;15.30;99.90;;;;;;5066065;28;20052;-77
2021/09/25 08:02:31;;;;;;;3.88;3.40;;;15.40;99.90;;;;;;5066376;28;20505;-77
2021/09/25 08:04:57;;;;;;;3.83;3.40;;;15.50;99.90;;;;;;5066467;28;20071;-77
2021/09/25 08:07:22;;;;;;;4.82;3.22;;;15.60;99.90;;;;;;5066572;28;20152;-77
2021/09/25 08:09:48;;;;;;;7.20;3.90;;;15.70;99.90;;;;;;5066739;28;20150;-77
2021/09/25 08:12:13;;;;;;;3.97;3.50;;;15.90;99.90;;;;;;5066662;28;20115;-77
2021/09/25 08:14:39;;;;;;;4.30;3.45;;;16.00;99.90;;;;;;5066187;28;20033;-77
2021/09/25 08:17:05;;;;;;;6.72;3.65;;;16.10;99.90;;;;;;5066728;28;20099;-77
2021/09/25 08:19:30;;;;;;;6.47;3.42;;;16.20;99.90;;;;;;5065103;28;20760;-78
2021/09/25 08:21:56;;;;;;;4.65;3.40;;;16.40;99.90;;;;;;5066311;28;20477;-77
2021/09/25 08:24:21;;;;;;;4.50;3.70;;;16.50;99.90;;;;;;5066290;28;20498;-77
2021/09/25 08:26:47;;;;;;;3.90;3.30;;;16.60;99.90;;;;;;5066648;28;20032;-77
2021/09/25 08:29:13;;;;;;;4.53;3.78;;;16.70;99.90;;;;;;5066006;28;20036;-77
2021/09/25 08:31:38;;;;;;;4.50;3.80;;;16.90;99.90;;;;;;5066227;28;20079;-77
2021/09/25 08:34:04;;;;;;;3.70;3.28;;;17.00;99.90;;;;;;5066233;28;20045;-77
2021/09/25 08:36:29;;;;;;;6.72;4.00;;;17.20;99.90;;;;;;5065888;28;20366;-77
2021/09/25 08:38:55;;;;;;;8.38;4.07;;;17.20;99.90;;;;;;5066015;28;20042;-77
2021/09/25 08:41:21;;;;;;;7.18;3.47;;;17.40;99.90;;;;;;5065754;28;20112;-77
2021/09/25 08:43:47;;;;;;;4.13;3.22;;;17.60;99.90;;;;;;5066070;28;20107;-77
2021/09/25 08:46:14;;;;;;;4.65;3.25;;;17.70;99.90;;;;;;5065861;28;20445;-78
2021/09/25 08:48:40;;;;;;;4.60;3.60;;;17.80;99.90;;;;;;5065947;28;20481;-77
2021/09/25 08:51:07;;;;;;;5.03;3.80;;;18.10;99.90;;;;;;5066268;28;20028;-77
2021/09/25 08:53:32;;;;;;;4.97;3.28;;;18.20;99.90;;;;;;5066080;28;20029;-75
2021/09/25 08:55:58;;;;;;;5.50;3.72;;;18.30;99.90;;;;;;5065567;28;20477;-75
2021/09/25 08:58:24;;;;;;;5.05;4.03;;;18.50;99.90;;;;;;5065248;28;20413;-75
2021/09/25 09:00:51;;;;;;;5.60;3.97;;;18.70;99.90;;;;;;5065814;28;20029;-75
2021/09/25 09:03:29;;;;;;;8.38;3.80;;;18.80;99.90;;;;;;5066202;28;20052;-78
2021/09/25 09:06:07;;;;;;;6.75;4.93;;;19.00;99.90;;;;;;5065873;28;20033;-75
2021/09/25 09:08:33;;;;;;;8.98;5.45;;;19.20;99.90;;;;;;5067903;28;20104;-75
2021/09/25 09:10:59;;;;;;;8.35;4.43;;;19.40;99.90;;;;;;5068869;28;20393;-75
2021/09/25 09:13:25;;;;;;;10.50;4.20;;;19.50;99.90;;;;;;5070955;28;20125;-75
2021/09/25 09:15:52;;;;;;;5.60;4.05;;;19.70;99.90;;;;;;5070715;28;20781;-76
2021/09/25 09:18:21;;;;;;;4.32;3.70;;;19.90;99.90;;;;;;5069758;28;20039;-75
2021/09/25 09:21:26;;;;;;;8.18;3.80;;;20.10;99.90;;;;;;5070217;28;20438;-76
2021/09/25 09:23:54;;;;;;;5.82;4.05;;;20.30;99.90;;;;;;5057813;28;20427;-75
2021/09/25 09:26:29;;;;;;;8.68;4.22;;;20.50;99.90;;;;;;5069412;28;20021;-75
2021/09/25 09:28:56;;;;;;;4.10;3.42;;;20.60;99.90;;;;;;5069625;28;20055;-75
2021/09/25 09:31:23;;;;;;;5.88;3.70;;;20.70;99.90;;;;;;5069520;28;20032;-76
2021/09/25 09:33:55;;;;;;;5.80;4.22;;;20.90;99.90;;;;;;5069428;28;20068;-75
2021/09/25 09:36:26;;;;;;;4.30;3.72;;;21.00;99.90;;;;;;5069240;28;20045;-76
2021/09/25 09:39:05;;;;;;;6.35;3.80;;;21.20;99.90;;;;;;5069653;28;20381;-75
2021/09/25 09:41:39;;;;;;;4.55;3.78;;;21.40;99.90;;;;;;5067513;28;20028;-75
2021/09/25 09:44:11;;;;;;;6.25;3.72;;;21.50;99.90;;;;;;5067531;28;20176;-78
2021/09/25 09:46:44;;;;;;;5.07;3.22;;;21.60;99.90;;;;;;5068911;28;20033;-78
2021/09/25 09:49:16;;;;;;;5.38;3.55;;;21.90;99.90;;;;;;5068763;28;20140;-78
2021/09/25 09:51:51;;;;;;;5.95;3.33;;;22.00;99.90;;;;;;5068889;28;20037;-78
2021/09/25 09:54:18;;;;;;;5.82;3.25;;;22.20;99.90;;;;;;5069259;28;20037;-78
2021/09/25 09:56:44;;;;;;;4.05;3.10;;;22.40;99.90;;;;;;5069203;28;20027;-79
2021/09/25 09:59:11;;;;;;;5.60;3.03;;;22.60;99.90;;;;;;5068996;28;20054;-78
2021/09/25 10:01:38;;;;;;;4.97;3.10;;;22.60;99.90;;;;;;5068656;28;20020;-78
2021/09/25 10:04:06;;;;;;;5.43;3.28;;;22.60;99.90;;;;;;5068612;28;20035;-78
2021/09/25 10:06:35;;;;;;;6.55;5.15;;;22.80;99.90;;;;;;5068760;28;20029;-78
2021/09/25 10:09:02;;;;;;;4.20;2.90;;;22.70;99.90;;;;;;5068467;28;20035;-78
2021/09/25 10:11:29;;;;;;;6.15;3.33;;;22.90;99.90;;;;;;5068770;28;20093;-78
2021/09/25 10:13:55;;;;;;;5.70;3.03;;;23.00;99.90;;;;;;5068756;28;20039;-78
2021/09/25 10:16:22;;;;;;;7.72;3.05;;;23.10;99.90;;;;;;5068374;28;20028;-78
2021/09/25 10:18:50;;;;;;;4.35;2.80;;;23.10;99.90;;;;;;5066527;28;20443;-78
2021/09/25 10:21:16;;;;;;;3.33;2.78;;;23.30;99.90;;;;;;5069996;28;20103;-78
2021/09/25 10:24:00;;;;;;;9.70;5.25;;;23.40;99.90;;;;;;5070100;28;20108;-79
2021/09/25 10:26:26;;;;;;;3.37;2.70;;;23.40;99.90;;;;;;5071293;28;20509;-78
2021/09/25 10:28:58;;;;;;;6.13;2.83;;;23.40;99.90;;;;;;5070553;28;20724;-78
2021/09/25 10:31:24;;;;;;;3.33;2.53;;;23.70;99.90;;;;;;5070328;28;20038;-78
2021/09/25 10:34:06;;;;;;;3.55;2.80;;;23.80;99.90;;;;;;5070541;28;20074;-78
2021/09/25 10:36:53;;;;;;;3.90;2.65;;;23.90;99.90;;;;;;5070509;28;20465;-78
2021/09/25 10:39:35;;;;;;;3.25;2.70;;;23.90;99.90;;;;;;5070536;28;20420;-78
2021/09/25 10:42:11;;;;;;;4.45;3.00;;;23.80;99.90;;;;;;5070771;28;20370;-78
2021/09/25 10:44:44;;;;;;;3.85;2.50;;;23.80;99.90;;;;;;5070784;28;20021;-78
2021/09/25 10:47:16;;;;;;;5.30;2.80;;;23.70;99.90;;;;;;5070391;28;20025;-78
2021/09/25 10:49:46;;;;;;;5.18;2.85;;;23.70;99.90;;;;;;5070982;28;20130;-78
2021/09/25 10:52:13;;;;;;;6.57;5.35;;;23.80;99.90;;;;;;5070073;28;20028;-78
2021/09/25 10:54:39;;;;;;;6.85;3.92;;;24.00;99.90;;;;;;5070601;28;20063;-78
2021/09/25 10:57:08;;;;;;;4.00;2.80;;;24.00;99.90;;;;;;5070200;28;20087;-78
2021/09/25 10:59:34;;;;;;;4.93;2.70;;;24.10;99.90;;;;;;5069851;28;20049;-78
2021/09/25 11:01:59;;;;;;;3.58;2.53;;;24.20;99.90;;;;;;5068805;28;20065;-78
2021/09/25 11:04:25;;;;;;;4.18;2.70;;;24.30;99.90;;;;;;5070234;28;20170;-78
2021/09/25 11:06:55;;;;;;;4.95;2.75;;;24.50;99.90;;;;;;5070021;28;20060;-78
2021/09/25 11:09:38;;;;;;;6.10;2.88;;;24.50;99.90;;;;;;5069673;28;20093;-78
2021/09/25 11:12:12;;;;;;;4.38;2.53;;;24.60;99.90;;;;;;5069941;28;20379;-78
2021/09/25 11:14:42;;;;;;;;;;;24.70;99.90;;;;;;5071310;28;20056;-78
2021/09/25 11:17:12;;;;;;;2.83;2.28;;;24.60;99.90;;;;;;5070316;28;19908;-78
2021/09/25 11:19:41;;;;;;;3.13;2.35;;;24.80;99.90;;;;;;5069929;28;20025;-78
2021/09/25 11:22:10;;;;;;;6.13;2.60;;;24.90;99.90;;;;;;5069682;28;20405;-78
2021/09/25 11:24:48;;;;;;;5.03;2.40;;;24.90;99.90;;;;;;5070105;28;20038;-79
2021/09/25 11:27:26;;;;;;;6.30;2.33;;;25.10;99.90;;;;;;5070052;28;20070;-78
2021/09/25 11:30:04;;;;;;;4.18;2.20;;;25.20;99.90;;;;;;5069735;28;20440;-78
2021/09/25 11:32:37;;;;;;;3.90;2.50;;;25.20;99.90;;;;;;5068090;28;20028;-78
2021/09/25 11:35:07;;;;;;;4.35;2.53;;;25.20;99.90;;;;;;5069636;28;20120;-78
2021/09/25 11:37:33;;;;;;;5.78;2.50;;;25.20;99.90;;;;;;5069994;28;20032;-78
2021/09/25 11:39:59;;;;;;;3.70;2.58;;;25.10;99.90;;;;;;5069392;28;20090;-78
2021/09/25 11:42:26;;;;;;;4.35;2.20;;;25.00;99.90;;;;;;5069506;28;20013;-78
2021/09/25 11:44:57;;;;;;;3.40;2.42;;;24.90;99.80;;;;;;5069714;28;20505;-78
2021/09/25 11:47:31;;;;;;;4.43;2.40;;;24.70;99.30;;;;;;5069702;28;20090;-78
2021/09/25 11:50:09;;;;;;;3.87;2.57;;;24.80;99.90;;;;;;5069842;28;20074;-77
2021/09/25 11:52:35;;;;;;;3.72;2.80;;;24.80;99.90;;;;;;5069486;28;20270;-78
2021/09/25 11:55:00;;;;;;;3.13;2.40;;;25.00;99.90;;;;;;5068750;28;20028;-78
2021/09/25 11:57:26;;;;;;;4.90;2.25;;;25.00;99.90;;;;;;5068069;28;20122;-78
2021/09/25 11:59:53;;;;;;;3.13;2.38;;;25.20;99.90;;;;;;5069161;28;20045;-78
2021/09/25 12:02:43;;;;;;;5.47;2.42;;;25.20;99.90;;;;;;5069389;28;20634;-78
2021/09/25 12:05:30;;;;;;;4.30;2.38;;;25.30;99.90;;;;;;5068988;28;20059;-78
2021/09/25 12:07:57;;;;;;;5.07;2.30;;;25.30;99.90;;;;;;5068941;28;20017;-78
2021/09/25 12:10:34;;;;;;;5.15;2.35;;;25.20;99.90;;;;;;5068901;28;20032;-78
2021/09/25 12:13:09;;;;;;;3.72;2.47;;;25.30;99.90;;;;;;5068775;28;20066;-79
2021/09/25 12:15:40;;;;;;;3.35;2.50;;;25.20;99.90;;;;;;5068668;28;20077;-78
2021/09/25 12:18:14;;;;;;;4.65;2.55;;;24.90;98.70;;;;;;5068708;28;20377;-78
2021/09/25 12:20:42;;;;;;;2.95;2.42;;;25.00;99.90;;;;;;5068494;28;20449;-78
2021/09/25 12:23:09;;;;;;;4.57;2.72;;;25.00;99.90;;;;;;5067084;28;20357;-78
2021/09/25 12:25:37;;;;;;;3.83;2.42;;;25.10;99.90;;;;;;5067256;28;20085;-78
2021/09/25 12:28:03;;;;;;;5.13;2.65;;;25.10;99.50;;;;;;5066878;28;20028;-78
2021/09/25 12:30:29;;;;;;;3.08;2.30;;;25.00;99.40;;;;;;5065891;28;20032;-78
2021/09/25 12:33:00;;;;;;;5.38;2.67;;;25.10;99.90;;;;;;5067294;28;20369;-78
2021/09/25 12:35:25;;;;;;;2.97;2.65;;;25.10;99.10;;;;;;5067048;28;20089;-78
2021/09/25 12:37:51;;;;;;;2.97;2.30;;;25.20;99.90;;;;;;5066270;28;20028;-78
2021/09/25 12:40:18;;;;;;;5.25;2.60;;;25.40;99.90;;;;;;5066534;28;20037;-78
2021/09/25 12:42:44;;;;;;;3.72;2.25;;;25.40;99.30;;;;;;5067210;28;20036;-78
2021/09/25 12:45:11;;;;;;;2.58;2.20;;;25.40;99.30;;;;;;5067037;28;20035;-78
2021/09/25 12:47:38;;;;;;;3.25;2.70;;;25.50;98.30;;;;;;5066808;28;20105;-78
2021/09/25 12:50:24;;;;;;;3.45;2.58;;;25.40;99.20;;;;;;5066946;28;20024;-78